This is the latest recevied weather packets stored in our database for station/object LRSM. If no packets are shown the sender has not sent any weather packets the latest 10 day(s).
| Time | Temp. | Humidity | Pressure | Rain* | Wind** | Luminosity | Snow |
|---|---|---|---|---|---|---|---|
| 1777612713 | 5° C | 53% | 1026 hPa | - | - | - | - |
| 1777611812 | 5° C | 53% | 1026 hPa | - | - | - | - |
| 1777610912 | 2.78° C | 56% | 1026 hPa | - | - | - | - |
| 1777610012 | 2.78° C | 56% | 1026 hPa | - | - | - | - |
| 1777609112 | 2.22° C | 60% | 1026 hPa | - | - | - | - |
| 1777608212 | 2.22° C | 60% | 1026 hPa | - | - | - | - |
| 1777607312 | 1.11° C | 65% | 1026 hPa | - | - | - | - |
| 1777606412 | 1.11° C | 65% | 1026 hPa | - | - | - | - |
| 1777605512 | 0° C | 69% | 1026 hPa | - | - | - | - |
| 1777604612 | 0° C | 69% | 1026 hPa | - | - | - | - |
| 1777603713 | 0° C | 64% | 1026 hPa | - | - | - | - |
| 1777602812 | 0° C | 64% | 1026 hPa | - | - | - | - |
| 1777601912 | 1.11° C | 65% | 1026 hPa | - | - | - | - |
| 1777585713 | 5° C | 45% | 1026 hPa | - | - | - | - |
| 1777583913 | 7.22° C | 39% | 1026 hPa | - | - | - | - |
| 1777583015 | 7.22° C | 39% | 1026 hPa | - | - | - | - |
| 1777579413 | 8.89° C | 32% | 1025 hPa | - | - | - | - |
| 1777577633 | 8.89° C | 32% | 1025 hPa | - | - | - | - |
| 1777574910 | 11.11° C | 28% | 1024 hPa | - | - | - | - |
| 1777572213 | 11.11° C | 28% | 1024 hPa | - | - | - | - |
| 1777571312 | 12.22° C | 24% | 1024 hPa | - | - | - | - |
| 1777570413 | 12.22° C | 24% | 1024 hPa | - | - | - | - |
| 1777569512 | 13.89° C | 23% | 1023 hPa | - | - | - | - |
| 1777566812 | 15° C | 21% | 1023 hPa | - | - | - | - |
| 1777565913 | 15° C | 20% | 1023 hPa | - | - | - | - |
* Rain since midnight (hover to see other rain measurements)
** Current wind speed in m/s (hover to see current wind gust speed)